METAR Data
IDs: Format: Raw Decoded Include TAF

Data at: 1332 UTC 07 Oct 2022

ETIH 071255Z AUTO 00000KT 9999 OVC044 17/09 A3023 RMK AO2 SLP241 T01680092 PWINO